sensor_id;sensor_type;location;lat;lon;timestamp;P1;durP1;ratioP1;P2;durP2;ratioP2
53287;SDS011;39172;45.550;12.072;2023-07-29T00:03:01;0.95;;;0.80;;
53287;SDS011;39172;45.550;12.072;2023-07-29T00:09:02;0.82;;;0.70;;
53287;SDS011;39172;45.550;12.072;2023-07-29T00:15:04;1.10;;;0.95;;
53287;SDS011;39172;45.550;12.072;2023-07-29T00:21:05;1.08;;;0.65;;
53287;SDS011;39172;45.550;12.072;2023-07-29T00:27:05;0.88;;;0.63;;
53287;SDS011;39172;45.550;12.072;2023-07-29T00:33:07;0.80;;;0.70;;
53287;SDS011;39172;45.550;12.072;2023-07-29T00:39:08;1.45;;;1.20;;
53287;SDS011;39172;45.550;12.072;2023-07-29T00:45:09;1.88;;;1.33;;
53287;SDS011;39172;45.550;12.072;2023-07-29T00:51:10;1.63;;;1.40;;
53287;SDS011;39172;45.550;12.072;2023-07-29T00:57:11;1.60;;;1.20;;
53287;SDS011;39172;45.550;12.072;2023-07-29T01:03:14;1.38;;;1.02;;
53287;SDS011;39172;45.550;12.072;2023-07-29T01:15:22;1.45;;;1.20;;
53287;SDS011;39172;45.550;12.072;2023-07-29T01:21:24;1.67;;;1.50;;
53287;SDS011;39172;45.550;12.072;2023-07-29T01:27:26;1.83;;;1.40;;
53287;SDS011;39172;45.550;12.072;2023-07-29T01:33:29;1.73;;;1.30;;
53287;SDS011;39172;45.550;12.072;2023-07-29T01:39:31;2.97;;;1.60;;
53287;SDS011;39172;45.550;12.072;2023-07-29T01:45:33;2.50;;;1.70;;
53287;SDS011;39172;45.550;12.072;2023-07-29T01:51:38;2.13;;;1.60;;
53287;SDS011;39172;45.550;12.072;2023-07-29T01:57:39;1.85;;;1.60;;
53287;SDS011;39172;45.550;12.072;2023-07-29T02:03:40;1.83;;;1.55;;
53287;SDS011;39172;45.550;12.072;2023-07-29T02:09:41;1.83;;;1.45;;
53287;SDS011;39172;45.550;12.072;2023-07-29T02:15:42;1.88;;;1.40;;
53287;SDS011;39172;45.550;12.072;2023-07-29T02:21:43;1.58;;;1.10;;
53287;SDS011;39172;45.550;12.072;2023-07-29T02:27:44;1.30;;;1.10;;
53287;SDS011;39172;45.550;12.072;2023-07-29T02:33:45;1.00;;;0.90;;
53287;SDS011;39172;45.550;12.072;2023-07-29T02:39:47;1.17;;;0.80;;
53287;SDS011;39172;45.550;12.072;2023-07-29T02:45:48;1.30;;;1.00;;
53287;SDS011;39172;45.550;12.072;2023-07-29T02:51:49;1.10;;;1.00;;
53287;SDS011;39172;45.550;12.072;2023-07-29T02:57:50;1.30;;;0.90;;
53287;SDS011;39172;45.550;12.072;2023-07-29T03:03:51;1.20;;;1.10;;
53287;SDS011;39172;45.550;12.072;2023-07-29T03:09:52;1.15;;;0.98;;
53287;SDS011;39172;45.550;12.072;2023-07-29T03:15:53;1.98;;;1.40;;
53287;SDS011;39172;45.550;12.072;2023-07-29T03:21:54;1.77;;;1.17;;
53287;SDS011;39172;45.550;12.072;2023-07-29T03:27:55;1.45;;;1.30;;
53287;SDS011;39172;45.550;12.072;2023-07-29T03:33:55;1.83;;;1.50;;
53287;SDS011;39172;45.550;12.072;2023-07-29T03:39:57;1.50;;;1.13;;
53287;SDS011;39172;45.550;12.072;2023-07-29T03:45:58;1.70;;;1.55;;
53287;SDS011;39172;45.550;12.072;2023-07-29T03:51:59;2.72;;;1.70;;
53287;SDS011;39172;45.550;12.072;2023-07-29T03:58:00;2.22;;;1.50;;
53287;SDS011;39172;45.550;12.072;2023-07-29T04:04:01;1.88;;;1.50;;
53287;SDS011;39172;45.550;12.072;2023-07-29T04:10:03;1.27;;;1.15;;
53287;SDS011;39172;45.550;12.072;2023-07-29T04:16:04;1.95;;;1.60;;
53287;SDS011;39172;45.550;12.072;2023-07-29T04:22:05;3.15;;;2.00;;
53287;SDS011;39172;45.550;12.072;2023-07-29T04:28:06;2.60;;;2.08;;
53287;SDS011;39172;45.550;12.072;2023-07-29T04:34:07;2.78;;;1.90;;
53287;SDS011;39172;45.550;12.072;2023-07-29T04:40:08;2.20;;;1.95;;
53287;SDS011;39172;45.550;12.072;2023-07-29T04:46:09;3.40;;;2.35;;
53287;SDS011;39172;45.550;12.072;2023-07-29T04:52:11;2.33;;;2.13;;
53287;SDS011;39172;45.550;12.072;2023-07-29T04:58:12;3.13;;;2.20;;
53287;SDS011;39172;45.550;12.072;2023-07-29T05:04:13;2.97;;;2.00;;
53287;SDS011;39172;45.550;12.072;2023-07-29T05:10:14;2.83;;;2.30;;
53287;SDS011;39172;45.550;12.072;2023-07-29T05:16:15;2.95;;;2.25;;
53287;SDS011;39172;45.550;12.072;2023-07-29T05:22:16;2.40;;;2.20;;
53287;SDS011;39172;45.550;12.072;2023-07-29T05:28:17;2.40;;;2.20;;
53287;SDS011;39172;45.550;12.072;2023-07-29T05:34:18;2.13;;;1.80;;
53287;SDS011;39172;45.550;12.072;2023-07-29T05:40:19;2.58;;;1.90;;
53287;SDS011;39172;45.550;12.072;2023-07-29T05:46:21;2.35;;;1.85;;
53287;SDS011;39172;45.550;12.072;2023-07-29T05:52:22;2.50;;;1.90;;
53287;SDS011;39172;45.550;12.072;2023-07-29T05:58:23;3.20;;;2.00;;
53287;SDS011;39172;45.550;12.072;2023-07-29T06:04:24;2.83;;;2.15;;
53287;SDS011;39172;45.550;12.072;2023-07-29T06:10:25;3.35;;;2.40;;
53287;SDS011;39172;45.550;12.072;2023-07-29T06:16:26;2.70;;;2.20;;
53287;SDS011;39172;45.550;12.072;2023-07-29T06:22:27;2.97;;;2.13;;
53287;SDS011;39172;45.550;12.072;2023-07-29T06:28:29;2.80;;;2.15;;
53287;SDS011;39172;45.550;12.072;2023-07-29T06:34:30;3.03;;;2.00;;
53287;SDS011;39172;45.550;12.072;2023-07-29T06:40:31;2.20;;;1.70;;
53287;SDS011;39172;45.550;12.072;2023-07-29T06:46:32;2.92;;;1.95;;
53287;SDS011;39172;45.550;12.072;2023-07-29T06:52:33;2.33;;;1.80;;
53287;SDS011;39172;45.550;12.072;2023-07-29T06:58:34;2.58;;;1.80;;
53287;SDS011;39172;45.550;12.072;2023-07-29T07:04:35;2.40;;;1.80;;
53287;SDS011;39172;45.550;12.072;2023-07-29T07:10:36;3.65;;;1.80;;
53287;SDS011;39172;45.550;12.072;2023-07-29T07:16:38;2.75;;;1.88;;
53287;SDS011;39172;45.550;12.072;2023-07-29T07:22:40;2.00;;;1.50;;
53287;SDS011;39172;45.550;12.072;2023-07-29T07:28:41;2.50;;;1.80;;
53287;SDS011;39172;45.550;12.072;2023-07-29T07:34:42;1.67;;;1.48;;
53287;SDS011;39172;45.550;12.072;2023-07-29T07:40:43;2.53;;;1.73;;
53287;SDS011;39172;45.550;12.072;2023-07-29T07:46:44;1.95;;;1.40;;
53287;SDS011;39172;45.550;12.072;2023-07-29T07:52:45;1.27;;;1.17;;
53287;SDS011;39172;45.550;12.072;2023-07-29T07:58:46;2.60;;;1.65;;
53287;SDS011;39172;45.550;12.072;2023-07-29T08:04:47;1.80;;;1.27;;
53287;SDS011;39172;45.550;12.072;2023-07-29T08:10:48;2.03;;;1.30;;
53287;SDS011;39172;45.550;12.072;2023-07-29T08:16:49;1.42;;;1.20;;
53287;SDS011;39172;45.550;12.072;2023-07-29T08:22:50;1.67;;;1.42;;
53287;SDS011;39172;45.550;12.072;2023-07-29T08:28:51;2.15;;;1.50;;
53287;SDS011;39172;45.550;12.072;2023-07-29T08:34:52;1.98;;;1.60;;
53287;SDS011;39172;45.550;12.072;2023-07-29T08:46:54;1.70;;;1.40;;
53287;SDS011;39172;45.550;12.072;2023-07-29T08:52:56;2.85;;;1.70;;
53287;SDS011;39172;45.550;12.072;2023-07-29T08:58:59;3.15;;;1.60;;
53287;SDS011;39172;45.550;12.072;2023-07-29T09:05:02;1.83;;;1.60;;
53287;SDS011;39172;45.550;12.072;2023-07-29T09:11:03;2.95;;;1.60;;
53287;SDS011;39172;45.550;12.072;2023-07-29T09:17:06;2.17;;;1.40;;
53287;SDS011;39172;45.550;12.072;2023-07-29T09:23:08;1.42;;;1.20;;
53287;SDS011;39172;45.550;12.072;2023-07-29T09:29:10;2.33;;;1.50;;
53287;SDS011;39172;45.550;12.072;2023-07-29T09:35:12;2.15;;;1.50;;
53287;SDS011;39172;45.550;12.072;2023-07-29T09:41:13;3.17;;;2.00;;
53287;SDS011;39172;45.550;12.072;2023-07-29T09:47:20;1.95;;;1.50;;
53287;SDS011;39172;45.550;12.072;2023-07-29T09:53:22;3.45;;;1.90;;
53287;SDS011;39172;45.550;12.072;2023-07-29T09:59:23;2.17;;;1.77;;
53287;SDS011;39172;45.550;12.072;2023-07-29T10:05:27;1.50;;;1.38;;
53287;SDS011;39172;45.550;12.072;2023-07-29T10:11:28;2.80;;;1.80;;
53287;SDS011;39172;45.550;12.072;2023-07-29T10:17:30;1.92;;;1.73;;
53287;SDS011;39172;45.550;12.072;2023-07-29T10:23:36;2.70;;;1.38;;
53287;SDS011;39172;45.550;12.072;2023-07-29T10:29:38;1.60;;;1.50;;
53287;SDS011;39172;45.550;12.072;2023-07-29T10:35:40;3.85;;;2.22;;
53287;SDS011;39172;45.550;12.072;2023-07-29T10:42:01;2.15;;;1.60;;
53287;SDS011;39172;45.550;12.072;2023-07-29T10:48:05;3.95;;;1.90;;
53287;SDS011;39172;45.550;12.072;2023-07-29T11:00:10;2.63;;;1.42;;
53287;SDS011;39172;45.550;12.072;2023-07-29T11:06:11;2.63;;;1.80;;
53287;SDS011;39172;45.550;12.072;2023-07-29T11:18:33;3.05;;;2.28;;
53287;SDS011;39172;45.550;12.072;2023-07-29T11:24:36;2.50;;;2.00;;
53287;SDS011;39172;45.550;12.072;2023-07-29T11:30:40;6.18;;;2.60;;
53287;SDS011;39172;45.550;12.072;2023-07-29T11:36:45;2.72;;;2.33;;
53287;SDS011;39172;45.550;12.072;2023-07-29T11:42:46;2.58;;;2.38;;
53287;SDS011;39172;45.550;12.072;2023-07-29T11:48:47;3.20;;;2.25;;
53287;SDS011;39172;45.550;12.072;2023-07-29T11:54:48;2.45;;;2.05;;
53287;SDS011;39172;45.550;12.072;2023-07-29T12:00:51;2.03;;;1.70;;
53287;SDS011;39172;45.550;12.072;2023-07-29T12:06:52;2.15;;;1.80;;
53287;SDS011;39172;45.550;12.072;2023-07-29T12:12:53;1.60;;;1.50;;
53287;SDS011;39172;45.550;12.072;2023-07-29T12:18:55;1.90;;;1.70;;
53287;SDS011;39172;45.550;12.072;2023-07-29T12:24:56;2.00;;;1.70;;
53287;SDS011;39172;45.550;12.072;2023-07-29T12:30:57;2.42;;;1.80;;
53287;SDS011;39172;45.550;12.072;2023-07-29T12:36:58;2.42;;;1.80;;
53287;SDS011;39172;45.550;12.072;2023-07-29T12:42:59;2.25;;;2.05;;
53287;SDS011;39172;45.550;12.072;2023-07-29T12:49:01;2.28;;;1.70;;
53287;SDS011;39172;45.550;12.072;2023-07-29T12:55:02;2.13;;;1.60;;
53287;SDS011;39172;45.550;12.072;2023-07-29T13:01:03;2.15;;;1.60;;
53287;SDS011;39172;45.550;12.072;2023-07-29T13:07:04;2.00;;;1.80;;
53287;SDS011;39172;45.550;12.072;2023-07-29T13:13:06;2.17;;;1.98;;
53287;SDS011;39172;45.550;12.072;2023-07-29T13:19:07;2.35;;;2.15;;
53287;SDS011;39172;45.550;12.072;2023-07-29T13:25:07;3.08;;;2.10;;
53287;SDS011;39172;45.550;12.072;2023-07-29T13:31:08;3.30;;;2.55;;
53287;SDS011;39172;45.550;12.072;2023-07-29T13:37:09;2.42;;;2.00;;
53287;SDS011;39172;45.550;12.072;2023-07-29T13:43:10;2.60;;;2.20;;
53287;SDS011;39172;45.550;12.072;2023-07-29T13:49:11;3.22;;;1.92;;
53287;SDS011;39172;45.550;12.072;2023-07-29T13:55:12;2.22;;;1.80;;
53287;SDS011;39172;45.550;12.072;2023-07-29T14:01:13;2.10;;;1.90;;
53287;SDS011;39172;45.550;12.072;2023-07-29T14:07:14;3.10;;;2.10;;
53287;SDS011;39172;45.550;12.072;2023-07-29T14:13:15;3.42;;;2.55;;
53287;SDS011;39172;45.550;12.072;2023-07-29T14:19:16;3.60;;;2.70;;
53287;SDS011;39172;45.550;12.072;2023-07-29T14:25:17;3.13;;;2.55;;
53287;SDS011;39172;45.550;12.072;2023-07-29T14:31:19;3.60;;;2.58;;
53287;SDS011;39172;45.550;12.072;2023-07-29T14:37:20;4.30;;;2.75;;
53287;SDS011;39172;45.550;12.072;2023-07-29T14:43:21;2.42;;;2.05;;
53287;SDS011;39172;45.550;12.072;2023-07-29T14:49:21;3.40;;;2.60;;
53287;SDS011;39172;45.550;12.072;2023-07-29T14:55:22;3.50;;;2.80;;
53287;SDS011;39172;45.550;12.072;2023-07-29T15:01:25;3.45;;;2.80;;
53287;SDS011;39172;45.550;12.072;2023-07-29T15:07:26;3.83;;;2.70;;
53287;SDS011;39172;45.550;12.072;2023-07-29T15:13:27;3.75;;;2.95;;
53287;SDS011;39172;45.550;12.072;2023-07-29T15:19:28;3.08;;;2.80;;
53287;SDS011;39172;45.550;12.072;2023-07-29T15:25:30;3.85;;;2.80;;
53287;SDS011;39172;45.550;12.072;2023-07-29T15:31:31;3.83;;;3.00;;
53287;SDS011;39172;45.550;12.072;2023-07-29T15:37:32;3.90;;;3.20;;
53287;SDS011;39172;45.550;12.072;2023-07-29T15:43:32;3.80;;;3.00;;
53287;SDS011;39172;45.550;12.072;2023-07-29T15:49:33;3.63;;;3.13;;
53287;SDS011;39172;45.550;12.072;2023-07-29T15:55:34;4.15;;;2.60;;
53287;SDS011;39172;45.550;12.072;2023-07-29T16:01:35;4.40;;;3.10;;
53287;SDS011;39172;45.550;12.072;2023-07-29T16:07:36;4.35;;;2.85;;
53287;SDS011;39172;45.550;12.072;2023-07-29T16:13:37;3.30;;;2.80;;
53287;SDS011;39172;45.550;12.072;2023-07-29T16:19:58;4.10;;;3.00;;
53287;SDS011;39172;45.550;12.072;2023-07-29T16:26:00;3.95;;;3.28;;
53287;SDS011;39172;45.550;12.072;2023-07-29T16:32:01;5.18;;;3.38;;
53287;SDS011;39172;45.550;12.072;2023-07-29T16:38:02;4.10;;;2.95;;
53287;SDS011;39172;45.550;12.072;2023-07-29T16:44:03;3.42;;;2.92;;
53287;SDS011;39172;45.550;12.072;2023-07-29T16:50:05;3.58;;;2.92;;
53287;SDS011;39172;45.550;12.072;2023-07-29T16:56:06;4.72;;;3.10;;
53287;SDS011;39172;45.550;12.072;2023-07-29T17:02:07;4.93;;;3.42;;
53287;SDS011;39172;45.550;12.072;2023-07-29T17:08:10;5.18;;;3.47;;
53287;SDS011;39172;45.550;12.072;2023-07-29T17:14:11;4.57;;;3.13;;
53287;SDS011;39172;45.550;12.072;2023-07-29T17:20:12;4.60;;;3.38;;
53287;SDS011;39172;45.550;12.072;2023-07-29T17:26:14;4.13;;;2.92;;
53287;SDS011;39172;45.550;12.072;2023-07-29T17:32:16;3.50;;;3.20;;
53287;SDS011;39172;45.550;12.072;2023-07-29T17:38:18;3.65;;;2.80;;
53287;SDS011;39172;45.550;12.072;2023-07-29T17:44:19;3.53;;;3.00;;
53287;SDS011;39172;45.550;12.072;2023-07-29T17:50:21;3.25;;;2.60;;
53287;SDS011;39172;45.550;12.072;2023-07-29T17:56:22;3.33;;;2.50;;
53287;SDS011;39172;45.550;12.072;2023-07-29T18:02:23;2.90;;;2.60;;
53287;SDS011;39172;45.550;12.072;2023-07-29T18:08:24;2.83;;;2.53;;
53287;SDS011;39172;45.550;12.072;2023-07-29T18:14:25;3.10;;;2.40;;
53287;SDS011;39172;45.550;12.072;2023-07-29T18:20:26;2.10;;;1.90;;
53287;SDS011;39172;45.550;12.072;2023-07-29T18:26:27;2.47;;;1.92;;
53287;SDS011;39172;45.550;12.072;2023-07-29T18:32:28;3.28;;;2.60;;
53287;SDS011;39172;45.550;12.072;2023-07-29T18:38:29;3.13;;;2.83;;
53287;SDS011;39172;45.550;12.072;2023-07-29T18:44:30;3.15;;;2.67;;
53287;SDS011;39172;45.550;12.072;2023-07-29T18:50:31;3.85;;;2.58;;
53287;SDS011;39172;45.550;12.072;2023-07-29T18:56:34;3.05;;;2.22;;
53287;SDS011;39172;45.550;12.072;2023-07-29T19:02:35;2.60;;;2.30;;
53287;SDS011;39172;45.550;12.072;2023-07-29T19:08:36;2.15;;;1.95;;
53287;SDS011;39172;45.550;12.072;2023-07-29T19:14:37;2.60;;;2.22;;
53287;SDS011;39172;45.550;12.072;2023-07-29T19:20:39;2.03;;;1.83;;
53287;SDS011;39172;45.550;12.072;2023-07-29T19:26:43;2.30;;;2.00;;
53287;SDS011;39172;45.550;12.072;2023-07-29T19:32:44;1.95;;;1.70;;
53287;SDS011;39172;45.550;12.072;2023-07-29T19:38:45;3.55;;;2.90;;
53287;SDS011;39172;45.550;12.072;2023-07-29T19:44:46;3.10;;;2.80;;
53287;SDS011;39172;45.550;12.072;2023-07-29T19:50:47;3.17;;;2.80;;
53287;SDS011;39172;45.550;12.072;2023-07-29T19:56:48;3.90;;;2.95;;
53287;SDS011;39172;45.550;12.072;2023-07-29T20:02:49;3.10;;;2.70;;
53287;SDS011;39172;45.550;12.072;2023-07-29T20:08:50;2.92;;;2.30;;
53287;SDS011;39172;45.550;12.072;2023-07-29T20:14:51;2.50;;;2.22;;
53287;SDS011;39172;45.550;12.072;2023-07-29T20:20:53;2.60;;;2.40;;
53287;SDS011;39172;45.550;12.072;2023-07-29T20:26:54;2.92;;;2.42;;
53287;SDS011;39172;45.550;12.072;2023-07-29T20:32:55;2.60;;;2.40;;
53287;SDS011;39172;45.550;12.072;2023-07-29T20:38:56;2.95;;;2.30;;
53287;SDS011;39172;45.550;12.072;2023-07-29T20:44:57;2.30;;;2.10;;
53287;SDS011;39172;45.550;12.072;2023-07-29T20:50:59;1.98;;;1.70;;
53287;SDS011;39172;45.550;12.072;2023-07-29T20:57:01;1.90;;;1.70;;
53287;SDS011;39172;45.550;12.072;2023-07-29T21:03:02;2.00;;;1.73;;
53287;SDS011;39172;45.550;12.072;2023-07-29T21:09:04;1.73;;;1.52;;
53287;SDS011;39172;45.550;12.072;2023-07-29T21:15:05;2.20;;;1.83;;
53287;SDS011;39172;45.550;12.072;2023-07-29T21:21:06;2.55;;;2.10;;
53287;SDS011;39172;45.550;12.072;2023-07-29T21:27:07;2.15;;;1.80;;
53287;SDS011;39172;45.550;12.072;2023-07-29T21:33:09;2.35;;;1.85;;
53287;SDS011;39172;45.550;12.072;2023-07-29T21:39:11;3.22;;;2.30;;
53287;SDS011;39172;45.550;12.072;2023-07-29T21:45:12;2.35;;;1.88;;
53287;SDS011;39172;45.550;12.072;2023-07-29T21:51:13;3.35;;;2.50;;
53287;SDS011;39172;45.550;12.072;2023-07-29T21:57:14;3.17;;;2.28;;
53287;SDS011;39172;45.550;12.072;2023-07-29T22:03:17;2.70;;;2.00;;
53287;SDS011;39172;45.550;12.072;2023-07-29T22:09:18;2.08;;;1.88;;
53287;SDS011;39172;45.550;12.072;2023-07-29T22:15:19;4.18;;;3.00;;
53287;SDS011;39172;45.550;12.072;2023-07-29T22:21:21;3.10;;;2.80;;
53287;SDS011;39172;45.550;12.072;2023-07-29T22:27:22;4.13;;;3.10;;
53287;SDS011;39172;45.550;12.072;2023-07-29T22:33:23;3.47;;;3.00;;
53287;SDS011;39172;45.550;12.072;2023-07-29T22:39:24;3.17;;;2.80;;
53287;SDS011;39172;45.550;12.072;2023-07-29T22:45:25;4.35;;;3.00;;
53287;SDS011;39172;45.550;12.072;2023-07-29T22:51:26;4.70;;;3.40;;
53287;SDS011;39172;45.550;12.072;2023-07-29T22:57:27;3.72;;;3.35;;
53287;SDS011;39172;45.550;12.072;2023-07-29T23:03:28;4.47;;;3.40;;
53287;SDS011;39172;45.550;12.072;2023-07-29T23:09:30;3.80;;;2.83;;
53287;SDS011;39172;45.550;12.072;2023-07-29T23:15:34;3.85;;;2.90;;
53287;SDS011;39172;45.550;12.072;2023-07-29T23:21:35;3.92;;;3.00;;
53287;SDS011;39172;45.550;12.072;2023-07-29T23:27:36;3.53;;;3.20;;
53287;SDS011;39172;45.550;12.072;2023-07-29T23:33:37;4.57;;;3.30;;
53287;SDS011;39172;45.550;12.072;2023-07-29T23:39:38;2.88;;;2.55;;
53287;SDS011;39172;45.550;12.072;2023-07-29T23:45:39;3.38;;;2.75;;
53287;SDS011;39172;45.550;12.072;2023-07-29T23:51:40;3.20;;;2.70;;
53287;SDS011;39172;45.550;12.072;2023-07-29T23:57:40;2.75;;;2.30;;
